Jun Ma 2 — BSPI — position and weather

sailwx.info

Track history (hours):
 
Tides and Currents Weather Stations Pressure Air Temp Water Temp Dewpoint Dewpoint Depression Visibility Wind Speed Wind Dir Waves Ship Positions

Jun Ma 2

Last reported at 2017-Nov-25 00:00 UTC. Time now 2017-Nov-25 00:17 UTC.
Position N 05°37' W 000°01'.

Length 87 m.

MMSI: 412052630.

Date/timePositionNaut miles runAvg speedWind from/ knotsBaromVisibWave heightAir tempDewpointWater temp
2017-Nov-25 00:00N 05°37' W 000°01'1 1.4
2017-Nov-24 23:30N 05°36' E 000°00'4 8.6
2017-Nov-24 23:00N 05°36' E 000°04'5 9.2
2017-Nov-24 22:31N 05°39' E 000°08'1 1.0
2017-Nov-24 22:00N 05°40' E 000°08'0 0.7
2017-Nov-24 21:30N 05°39' E 000°08'0 0.5
2017-Nov-24 21:00N 05°40' E 000°08'0 0.5
2017-Nov-24 20:30N 05°39' E 000°08'1 1.3
2017-Nov-24 20:00N 05°39' E 000°08'612.8
2017-Nov-24 19:30N 05°35' E 000°02'3 6.4
2017-Nov-24 19:00N 05°37' W 000°00'0 0.0
2017-Nov-24 18:30N 05°37' W 000°00'0 0.0
2017-Nov-24 18:00N 05°37' W 000°00'0 0.0
2017-Nov-24 17:30N 05°37' W 000°00'0 0.0
2017-Nov-24 17:00N 05°37' W 000°01'0 0.3
2017-Nov-24 16:31N 05°37' W 000°00'3 7.0
2017-Nov-24 16:00N 05°36' E 000°03'5 9.7
2017-Nov-24 15:30N 05°39' E 000°07'1 1.9
2017-Nov-24 15:00N 05°40' E 000°07'0 0.2
2017-Nov-24 14:30N 05°40' E 000°08'1 1.0
2017-Nov-24 14:00N 05°39' E 000°07'1 1.1
2017-Nov-24 13:30N 05°40' E 000°07'1 1.5
2017-Nov-24 13:00N 05°39' E 000°07'5 9.3
2017-Nov-24 12:30N 05°36' E 000°04'4 8.1
2017-Nov-24 12:00N 05°37' W 000°00'0 0.0
2017-Nov-24 11:30N 05°37' W 000°00'0 0.0
2017-Nov-24 11:00N 05°37' W 000°00'0 0.0
2017-Nov-24 10:30N 05°37' W 000°00'1 2.1
2017-Nov-24 10:00N 05°36' E 000°00'0 0.2
2017-Nov-24 09:30N 05°36' E 000°00'0 0.6
2017-Nov-24 09:00N 05°36' E 000°00'1 2.8
2017-Nov-24 08:31N 05°35' E 000°01'2 4.9
2017-Nov-24 08:00N 05°38' E 000°01'0 0.1
2017-Nov-24 07:30N 05°38' E 000°00'0 0.0
2017-Nov-24 06:59N 05°38' E 000°00'0 0.0
2017-Nov-24 06:29N 05°38' E 000°00'0 0.0
2017-Nov-24 05:59N 05°38' E 000°00'0 0.0
2017-Nov-24 05:29N 05°38' E 000°00'0 0.0
2017-Nov-24 04:59N 05°38' E 000°00'0 0.0
2017-Nov-24 04:29N 05°38' E 000°00'0 0.0
2017-Nov-24 03:59N 05°38' E 000°00'0 0.0
2017-Nov-24 03:29N 05°38' E 000°00'0 0.0
2017-Nov-24 02:59N 05°38' E 000°00'0 0.0
2017-Nov-24 02:29N 05°38' E 000°00'0 0.0
2017-Nov-24 01:59N 05°38' E 000°00'0 0.0
2017-Nov-24 01:29N 05°38' E 000°00'0 0.0
2017-Nov-24 00:59N 05°38' E 000°00'0 0.0
2017-Nov-24 00:29N 05°38' E 000°00'0 0.0
2017-Nov-23 23:59N 05°38' E 000°00'0 0.0
2017-Nov-23 23:29N 05°38' E 000°00'0 0.0
2017-Nov-23 22:59N 05°38' E 000°00'0 0.0
2017-Nov-23 22:26N 05°38' E 000°00'0 0.0
2017-Nov-23 21:59N 05°38' E 000°00'0 0.0
2017-Nov-23 21:29N 05°38' E 000°00'0 0.0
2017-Nov-23 20:59N 05°38' E 000°00'0 0.0
2017-Nov-23 20:26N 05°38' E 000°00'0 0.0
2017-Nov-23 19:59N 05°38' E 000°00'0 0.0
2017-Nov-23 19:29N 05°38' E 000°00'0 0.0
2017-Nov-23 18:59N 05°38' E 000°00'0 0.0
2017-Nov-23 18:29N 05°38' E 000°00'0 0.0
2017-Nov-23 17:59N 05°38' E 000°00'0 0.0
2017-Nov-23 17:29N 05°38' E 000°00'0 0.0
2017-Nov-23 16:59N 05°38' E 000°00'0 0.0
2017-Nov-23 16:29N 05°38' E 000°00'0 0.0
2017-Nov-23 15:59N 05°38' E 000°00'0 0.0
2017-Nov-23 15:29N 05°38' E 000°00'0 0.0
2017-Nov-23 14:59N 05°38' E 000°00'0 0.0
2017-Nov-23 14:23N 05°38' E 000°00'0 0.0
2017-Nov-23 13:59N 05°38' E 000°00'0 0.0
2017-Nov-23 13:29N 05°38' E 000°00'0 0.0
2017-Nov-23 12:59N 05°38' E 000°00'0 0.0
2017-Nov-23 12:29N 05°38' E 000°00'0 0.0
2017-Nov-23 11:59N 05°38' E 000°00'0 0.0
2017-Nov-23 11:29N 05°38' E 000°00'0 0.0
2017-Nov-23 10:59N 05°38' E 000°00'0 0.0
2017-Nov-23 10:29N 05°38' E 000°00'0 0.0
2017-Nov-23 09:59N 05°38' E 000°00'0 0.0
2017-Nov-23 09:29N 05°38' E 000°00'0 0.0
2017-Nov-23 08:59N 05°38' E 000°00'0 0.0
2017-Nov-23 08:29N 05°38' E 000°00'0 0.0
2017-Nov-23 07:59N 05°38' E 000°00'0 0.0
2017-Nov-23 07:29N 05°38' E 000°00'0 0.0
2017-Nov-23 06:59N 05°38' E 000°00'0 0.0
2017-Nov-23 06:29N 05°38' E 000°00'0 0.0
2017-Nov-23 05:59N 05°38' E 000°00'0 0.0
2017-Nov-23 05:29N 05°38' E 000°00'0 0.0
2017-Nov-23 04:59N 05°38' E 000°00'0 0.0
2017-Nov-23 04:29N 05°38' E 000°00'0 0.0
2017-Nov-23 03:59N 05°38' E 000°00'0 0.0
2017-Nov-23 03:29N 05°38' E 000°00'0 0.0
2017-Nov-23 02:59N 05°38' E 000°00'0 0.0
2017-Nov-23 02:29N 05°38' E 000°00'0 0.0
2017-Nov-23 01:59N 05°38' E 000°00'0 0.0
2017-Nov-23 01:29N 05°38' E 000°00'0 0.0
2017-Nov-23 00:59N 05°38' E 000°00'0 0.0
2017-Nov-23 00:29N 05°38' E 000°00'0 0.0
2017-Nov-22 23:59N 05°38' E 000°00'0 0.0
2017-Nov-22 23:29N 05°38' E 000°00'0 0.0
2017-Nov-22 22:59N 05°38' E 000°00'0 0.0
2017-Nov-22 22:29N 05°38' E 000°00'0 0.0
2017-Nov-22 21:59N 05°38' E 000°00'0 0.0
2017-Nov-22 21:29N 05°38' E 000°00'0 0.0
2017-Nov-22 20:59N 05°38' E 000°00'0 0.0
2017-Nov-22 20:29N 05°38' E 000°00'0 0.0
2017-Nov-22 19:59N 05°38' E 000°00'0 0.0
2017-Nov-22 19:29N 05°38' E 000°00'  
2017-Nov-20 00:31N 05°40' E 000°08'673963508.1
2017-Nov-20 00:24N 22°45' E 114°38'674017110.3
2017-Nov-20 00:01N 05°39' E 000°07'67401155351.5
2017-Nov-20 00:00N 22°45' E 114°38'674313561.0
2017-Nov-19 23:30N 05°36' E 000°05'67431733874.0
2017-Nov-19 23:30N 22°45' E 114°38'674813685.2
2017-Nov-19 23:01N 05°37' W 000°00'67481214557.6
2017-Nov-19 23:00N 22°45' E 114°38'674813647.5
2017-Nov-19 22:31N 05°37' W 000°01'67481056194.5
2017-Nov-19 22:30N 22°45' E 114°38'674813662.8
2017-Nov-19 22:01N 05°37' W 000°01'67481214624.7
2017-Nov-19 22:00N 22°45' E 114°38'674813647.5
2017-Nov-19 21:31N 05°37' W 000°01'67481104204.7
2017-Nov-19 21:30N 22°45' E 114°38'674813594.0
2017-Nov-19 21:00N 05°37' W 000°01'67481735177.8
2017-Nov-19 21:00N 22°45' E 114°38'674813678.0
2017-Nov-19 20:31N 05°37' W 000°00'67481156765.0
2017-Nov-19 20:30N 22°45' E 114°38'674513648.8
2017-Nov-19 20:01N 05°36' E 000°03'6745971251.1
2017-Nov-19 20:00N 22°45' E 114°38'674013646.6
2017-Nov-19 19:30N 05°39' E 000°07'67401213184.2
2017-Nov-19 19:30N 22°45' E 114°38'673913645.0
2017-Nov-19 19:01N 05°39' E 000°08'67391102765.1
2017-Nov-19 19:00N 22°45' E 114°38'673813651.2
2017-Nov-19 18:31N 05°40' E 000°08'67381102642.4
2017-Nov-19 18:30N 22°45' E 114°38'673913651.7
2017-Nov-19 18:01N 05°40' E 000°08'67391054741.1
2017-Nov-19 18:00N 22°45' E 114°38'673913614.7
2017-Nov-19 17:30N 05°39' E 000°07'67391102792.9
2017-Nov-19 17:30N 22°45' E 114°38'674113688.0
2017-Nov-19 17:01N 05°38' E 000°06'6741808963.7
2017-Nov-19 17:00N 22°45' E 114°38'674713715.8
2017-Nov-19 16:31N 05°36' E 000°00'6747934254.6
2017-Nov-19 16:30N 22°45' E 114°38'674813685.9
2017-Nov-19 16:01N 05°37' W 000°01'6748934326.4
2017-Nov-19 16:00N 22°45' E 114°38'674813693.6
2017-Nov-19 15:31N 05°37' W 000°01'6748934326.5
2017-Nov-19 15:30N 22°45' E 114°38'674813693.6
2017-Nov-19 15:01N 05°37' W 000°01'674862933.9
2017-Nov-19 14:54N 22°45' E 114°38'674817192.1
2017-Nov-19 14:31N 05°37' W 000°01'6748934326.7
2017-Nov-19 14:30N 22°45' E 114°38'674813616.9
2017-Nov-19 14:00N 05°37' W 000°01'67481214625.2
2017-Nov-19 14:00N 22°45' E 114°38'674713731.5
2017-Nov-19 13:31N 05°37' W 000°00'67471012124.8
2017-Nov-19 13:30N 22°45' E 114°38'674313653.4
2017-Nov-19 13:01N 05°37' E 000°04'6743971026.7
2017-Nov-19 13:00N 22°45' E 114°38'674013676.6
2017-Nov-19 12:31N 05°39' E 000°07'6740970494.7
2017-Nov-19 12:30N 22°45' E 114°38'673913668.2
2017-Nov-19 12:01N 05°39' E 000°07'6739933118.1
2017-Nov-19 12:00N 22°45' E 114°38'673913668.0
2017-Nov-19 11:31N 05°39' E 000°08'6739970424.5
2017-Nov-19 11:30N 22°45' E 114°38'673913668.2
2017-Nov-19 11:01N 05°39' E 000°08'6739933114.4
2017-Nov-19 11:00N 22°45' E 114°38'673913675.5
2017-Nov-19 10:31N 05°39' E 000°08'6739118923.5
2017-Nov-19 10:27N 22°45' E 114°38'673915211.3
2017-Nov-19 10:01N 05°39' E 000°07'6739933151.8
2017-Nov-19 10:00N 22°45' E 114°38'674413602.1
2017-Nov-19 09:30N 05°36' E 000°03'67441348872.6
2017-Nov-19 09:30N 22°45' E 114°38'674813716.8
2017-Nov-19 09:01N 05°37' W 000°00'6748837669.9
2017-Nov-19 09:00N 22°45' E 114°38'674813709.1
2017-Nov-19 08:31N 05°37' W 000°01'6748971699.5
2017-Nov-19 08:30N 22°45' E 114°38'674813693.6
2017-Nov-19 08:01N 05°37' W 000°01'674862448.6
2017-Nov-19 07:54N 22°45' E 114°38'674817107.4
2017-Nov-19 07:30N 05°37' W 000°00'67481056194.2
2017-Nov-19 07:30N 22°45' E 114°38'674813747.9
2017-Nov-19 07:01N 05°37' W 000°00'6748736135.2
2017-Nov-19 07:00N 22°45' E 114°38'674813740.1
2017-Nov-19 06:31N 05°37' W 000°01'6748114587.2
2017-Nov-19 06:27N 22°45' E 114°38'674815211.2
2017-Nov-19 06:00N 05°37' W 000°00'67481349572.7
2017-Nov-19 06:00N 22°45' E 114°38'674513687.1
2017-Nov-19 05:31N 05°36' E 000°03'6745933883.9
2017-Nov-19 05:30N 22°45' E 114°38'673913684.1
2017-Nov-19 05:01N 05°39' E 000°07'6739808731.2
2017-Nov-19 05:00N 22°45' E 114°38'673913699.5
2017-Nov-19 04:31N 05°39' E 000°07'6739836616.5
2017-Nov-19 04:30N 22°45' E 114°38'673913705.9
2017-Nov-19 04:01N 05°40' E 000°08'6739116073.7
2017-Nov-19 03:57N 22°45' E 114°38'674015249.9
2017-Nov-19 03:31N 05°39' E 000°07'6740836640.6
2017-Nov-19 03:30N 22°45' E 114°38'673913698.4
2017-Nov-19 03:01N 05°40' E 000°08'6739362076.6
2017-Nov-19 02:59N 22°45' E 114°38'673913991.4
2017-Nov-19 02:31N 05°39' E 000°07'6739385092.6
2017-Nov-19 02:29N 22°45' E 114°38'674213821.2
2017-Nov-19 02:00N 05°37' E 000°06'6742577856.0
2017-Nov-19 01:59N 22°45' E 114°38'674713975.8
2017-Nov-19 01:31N 05°36' E 000°00'6747346999.3
2017-Nov-19 01:29N 22°45' E 114°38'674814041.3
2017-Nov-19 01:01N 05°37' W 000°00'674897949.5
2017-Nov-19 00:56N 22°45' E 114°38'674815551.5
2017-Nov-19 00:30N 05°37' W 000°00'6748476303.2
2017-Nov-19 00:30N 22°45' E 114°38'674813968.6
2017-Nov-19 00:01N 05°37' W 000°00'6748379554.1
2017-Nov-18 23:59N 22°45' E 114°38'674813984.7
2017-Nov-18 23:31N 05°37' W 000°01'6748379554.3
2017-Nov-18 23:29N 22°45' E 114°38'674814000.9
2017-Nov-18 23:01N 05°37' W 000°01'6748379554.7
2017-Nov-18 22:59N 22°45' E 114°38'674613910.2
2017-Nov-18 22:30N 05°35' E 000°01'6746449763.5
2017-Nov-18 22:29N 22°45' E 114°38'674113891.5
2017-Nov-18 22:00N 05°38' E 000°06'6741103270.0
2017-Nov-18 21:56N 22°45' E 114°38'673815599.1
2017-Nov-18 21:31N 05°40' E 000°08'6738379008.7
2017-Nov-18 21:29N 22°45' E 114°38'673813989.7
2017-Nov-18 21:01N 05°39' E 000°08'6738336918.4
2017-Nov-18 20:59N 22°45' E 114°38'673913950.5
2017-Nov-18 20:30N 05°39' E 000°08'6739104568.9
2017-Nov-18 20:26N 22°45' E 114°38'673815559.6
2017-Nov-18 20:01N 05°40' E 000°08'6738367537.5
2017-Nov-18 19:59N 22°45' E 114°38'673913999.0
2017-Nov-18 19:31N 05°39' E 000°07'6739356769.8
2017-Nov-18 19:29N 22°45' E 114°38'674314007.2
2017-Nov-18 19:01N 05°37' E 000°04'6743101144.0
2017-Nov-18 18:57N 22°45' E 114°38'674815581.3
2017-Nov-18 18:31N 05°37' W 000°00'6748357223.7
2017-Nov-18 18:29N 22°45' E 114°38'674814025.1
2017-Nov-18 18:01N 05°37' W 000°00'6748352050.0
2017-Nov-18 17:59N 22°45' E 114°38'674814033.2
2017-Nov-18 17:31N 05°37' W 000°00'674899964.8
2017-Nov-18 17:26N 22°45' E 114°38'674815601.4
2017-Nov-18 17:01N 05°37' W 000°00'6748347020.8
2017-Nov-18 16:59N 22°45' E 114°38'674814033.2
2017-Nov-18 16:31N 05°37' W 000°00'674898346.0
2017-Nov-18 16:26N 22°45' E 114°38'674715650.7
2017-Nov-18 16:01N 05°36' E 000°00'6747368028.9
2017-Nov-18 15:59N 22°45' E 114°38'674313990.8
2017-Nov-18 15:31N 05°37' E 000°04'6743362298.8
2017-Nov-18 15:29N 22°45' E 114°38'673914007.7
2017-Nov-18 15:01N 05°39' E 000°07'6739356785.4
2017-Nov-18 14:59N 22°45' E 114°38'673913998.3
2017-Nov-18 14:31N 05°40' E 000°08'6739336930.2
2017-Nov-18 14:29N 22°45' E 114°38'673914048.2
2017-Nov-18 14:01N 05°39' E 000°07'6739332346.9
2017-Nov-18 13:59N 22°45' E 114°38'673914014.3
2017-Nov-18 13:30N 05°40' E 000°08'6739391270.5
2017-Nov-18 13:29N 22°45' E 114°38'673913983.6
2017-Nov-18 13:01N 05°39' E 000°07'6739346592.6
2017-Nov-18 12:59N 22°45' E 114°38'674314031.8
2017-Nov-18 12:31N 05°36' E 000°04'674397883.4
2017-Nov-18 12:26N 22°45' E 114°38'674815661.6
2017-Nov-18 12:01N 05°37' W 000°00'6748379550.0
2017-Nov-18 11:59N 22°45' E 114°38'674813984.7
2017-Nov-18 11:31N 05°37' W 000°01'6748362559.4
2017-Nov-18 11:29N 22°45' E 114°38'674814025.1
2017-Nov-18 11:01N 05°37' W 000°01'674897165.9
2017-Nov-18 10:56N 22°45' E 114°38'674815661.8
2017-Nov-18 10:31N 05°37' W 000°00'6748362559.0
2017-Nov-18 10:29N 22°45' E 114°38'674814017.0
2017-Nov-18 10:01N 05°37' W 000°00'6748332759.6
2017-Nov-18 09:59N 22°45' E 114°38'674714073.2
2017-Nov-18 09:31N 05°37' W 000°00'4 7.7
2017-Nov-18 09:01N 05°36' E 000°04'510.2
2017-Nov-18 08:30N 05°39' E 000°08'1 1.0
2017-Nov-18 08:01N 05°40' E 000°08'1 1.0
2017-Nov-18 07:31N 05°39' E 000°08'1 1.3
2017-Nov-18 07:01N 05°40' E 000°08'1 2.0
2017-Nov-18 06:30N 05°39' E 000°07'3 5.6
2017-Nov-18 06:00N 05°37' E 000°05'510.3
2017-Nov-18 05:30N 05°36' E 000°00'1 1.3
2017-Nov-18 05:01N 05°37' W 000°00'0 0.0
2017-Nov-18 04:31N 05°37' W 000°00'0 0.0
2017-Nov-18 04:00N 05°37' W 000°00'0 0.0
2017-Nov-18 03:31N 05°37' W 000°01'0 0.0
2017-Nov-18 03:00N 05°37' W 000°01'1 2.3
2017-Nov-18 02:31N 05°36' E 000°00'5 9.3
2017-Nov-18 02:01N 05°37' E 000°05'4 7.2
2017-Nov-18 01:31N 05°40' E 000°07'0 0.5
2017-Nov-18 01:01N 05°39' E 000°07'0 0.4
2017-Nov-18 00:31N 05°39' E 000°07'1 1.5
2017-Nov-18 00:01N 05°40' E 000°08'1 1.7
2017-Nov-17 23:31N 05°39' E 000°08'6742449455.3
2017-Nov-17 23:30N 22°41' E 114°41'674513899.4
2017-Nov-17 23:01N 05°37' E 000°05'510.5
2017-Nov-17 22:31N 05°37' W 000°00'675415477.2
2017-Nov-17 22:04N 22°31' E 114°44'6754106649.8
2017-Nov-17 22:01N 05°37' W 000°01'675616181.2
2017-Nov-17 21:35N 22°28' E 114°45'675681886.7
2017-Nov-17 21:31N 05°37' W 000°01'675668895.4
2017-Nov-17 21:25N 22°26' E 114°44'675616807.2
2017-Nov-17 21:01N 05°37' W 000°01'67528102946.2
2017-Nov-17 21:00N 22°23' E 114°41'675213519.9
2017-Nov-17 20:31N 05°37' W 000°01'6749783722.1
2017-Nov-17 20:30N 22°20' E 114°37'674813670.6
2017-Nov-17 20:00N 05°35' E 000°01'67446070041.5
2017-Nov-17 20:00N 22°17' E 114°33'674013577.1
2017-Nov-17 19:31N 05°37' E 000°05'3 6.9
2017-Nov-17 19:00N 05°39' E 000°08'0 0.3
2017-Nov-17 18:31N 05°40' E 000°08'1 1.2
2017-Nov-17 18:01N 05°40' E 000°08'1 2.0
2017-Nov-17 17:31N 05°39' E 000°08'0 0.4
2017-Nov-17 17:01N 05°39' E 000°08'6710168918.1
2017-Nov-17 16:58N 22°02' E 114°04'670914567.5
2017-Nov-17 16:31N 05°40' E 000°08'6705389346.2
2017-Nov-17 16:29N 22°01' E 113°60'670613897.5
2017-Nov-17 16:01N 05°40' E 000°08'67061856956.3
2017-Nov-17 16:00N 22°01' E 113°60'670613502.4
2017-Nov-17 15:31N 05°39' E 000°07'67062194759.9
2017-Nov-17 15:30N 22°01' E 113°60'670713497.0
2017-Nov-17 15:01N 05°38' E 000°07'612.3
2017-Nov-17 14:30N 05°35' E 000°01'671313945.0
2017-Nov-17 14:01N 22°00' E 113°59'6714416739.5
2017-Nov-17 14:01N 05°37' W 000°00'0 0.0
2017-Nov-17 13:31N 05°37' W 000°00'671436568.7
2017-Nov-17 13:19N 22°00' E 113°59'671421240.7
2017-Nov-17 13:01N 05°37' W 000°00'671415078.9
2017-Nov-17 12:34N 22°00' E 113°59'6714116209.3
2017-Nov-17 12:30N 05°37' W 000°01'671429088.0
2017-Nov-17 12:16N 22°00' E 113°59'671525231.9
2017-Nov-17 12:01N 05°37' W 000°01'671418840.2
2017-Nov-17 11:39N 22°01' E 113°59'671445864.2
2017-Nov-17 11:30N 05°37' W 000°00'671343783.2
2017-Nov-17 11:21N 22°01' E 113°59'671319521.8
2017-Nov-17 11:01N 05°36' E 000°00'6714120242.7
2017-Nov-17 10:57N 22°01' E 113°59'671015014.1
2017-Nov-17 10:30N 05°36' E 000°04'671121324.6
2017-Nov-17 10:11N 22°00' E 113°60'670636141.9
2017-Nov-17 10:00N 05°39' E 000°08'1 2.4
2017-Nov-17 09:31N 05°40' E 000°09'0 0.9
2017-Nov-17 09:01N 05°39' E 000°08'0 0.4
2017-Nov-17 08:31N 05°39' E 000°08'0 1.0
2017-Nov-17 08:01N 05°40' E 000°08'1 1.3
2017-Nov-17 07:30N 05°39' E 000°08'1 2.7
2017-Nov-17 07:01N 05°38' E 000°07'612.1
2017-Nov-17 06:30N 05°35' E 000°02'3 5.6
2017-Nov-17 06:01N 05°37' W 000°01'0 0.0
2017-Nov-17 05:31N 05°37' W 000°00'0 0.0
2017-Nov-17 05:01N 05°37' W 000°00'0 0.0
2017-Nov-17 04:31N 05°37' W 000°00'671529088.8
2017-Nov-17 04:17N 22°00' E 113°59'671524666.1
2017-Nov-17 04:00N 05°37' W 000°01'671599478.3
2017-Nov-17 03:56N 22°00' E 113°60'671415624.6
2017-Nov-17 03:31N 05°36' E 000°00'6715119666.8
2017-Nov-17 03:27N 22°00' E 113°60'671015116.9
2017-Nov-17 03:01N 05°37' E 000°05'4 7.9
2017-Nov-17 02:31N 05°40' E 000°07'0 0.3
2017-Nov-17 02:00N 05°40' E 000°08'670692853.1
2017-Nov-17 01:56N 22°01' E 113°60'670715739.6
2017-Nov-17 01:30N 05°39' E 000°07'6706409192.3
2017-Nov-17 01:29N 22°01' E 113°59'670613897.5
2017-Nov-17 01:01N 05°40' E 000°07'6706464264.9
2017-Nov-17 01:00N 22°01' E 113°60'670613740.5
2017-Nov-17 00:30N 05°40' E 000°07'67068047356.7
2017-Nov-17 00:30N 22°01' E 113°60'670713504.5
2017-Nov-17 00:01N 05°38' E 000°07'67071857389.1
2017-Nov-17 00:00N 22°01' E 113°60'671413532.3
2017-Nov-16 23:31N 05°35' E 000°01'6714732386.5
2017-Nov-16 23:30N 22°01' E 113°60'671513672.8
2017-Nov-16 23:01N 05°37' W 000°00'6715755413.3
2017-Nov-16 23:00N 22°01' E 113°60'671513664.9
2017-Nov-16 22:31N 05°37' W 000°01'671512086619.7
2017-Nov-16 22:30N 22°01' E 113°60'671513452.0
2017-Nov-16 22:01N 05°37' W 000°00'0 0.0
2017-Nov-16 21:30N 05°37' W 000°01'0 0.0
2017-Nov-16 21:01N 05°37' W 000°00'3 5.2
2017-Nov-16 20:31N 05°35' E 000°02'672734302.3
2017-Nov-16 20:19N 22°06' E 114°14'672322101.4
2017-Nov-16 20:01N 05°38' E 000°06'672772943.4
2017-Nov-16 19:55N 22°06' E 114°19'672416500.9
2017-Nov-16 19:31N 05°40' E 000°08'6728781289.2
2017-Nov-16 19:30N 22°09' E 114°23'672713690.1
2017-Nov-16 19:01N 05°39' E 000°08'67312019292.8
2017-Nov-16 19:00N 22°13' E 114°28'673013550.6
2017-Nov-16 18:31N 05°40' E 000°09'67348080874.2
2017-Nov-16 18:30N 22°16' E 114°32'673513500.1
2017-Nov-16 18:01N 05°40' E 000°08'67398086831.1
2017-Nov-16 18:00N 22°20' E 114°36'674013494.3
2017-Nov-16 17:31N 05°39' E 000°08'67438092019.8
2017-Nov-16 17:30N 22°23' E 114°41'674913513.5
2017-Nov-16 17:01N 05°36' E 000°03'675312155519.8
2017-Nov-16 17:00N 22°27' E 114°45'675613534.6
2017-Nov-16 16:31N 05°37' W 000°00'67548104751.7
2017-Nov-16 16:30N 22°32' E 114°43'675413523.0
2017-Nov-16 16:01N 05°37' W 000°01'6751185536.3
2017-Nov-16 15:58N 22°38' E 114°41'510.0
2017-Nov-16 15:31N 22°42' E 114°41'675124302498.6
2017-Nov-16 15:31N 05°37' W 000°00'0 0.0
2017-Nov-16 15:01N 05°37' W 000°01'67518100981.2
2017-Nov-16 15:00N 22°43' E 114°41'675113516.7
2017-Nov-16 14:31N 05°37' W 000°01'0 0.1
2017-Nov-16 14:01N 05°37' W 000°00'4 7.2
2017-Nov-16 13:31N 05°35' E 000°03'510.2
2017-Nov-16 13:00N 05°39' E 000°07'1 2.9
2017-Nov-16 12:31N 05°40' E 000°08'1 1.4
2017-Nov-16 12:01N 05°39' E 000°08'1 1.7
2017-Nov-16 11:30N 05°40' E 000°09'0 0.7
2017-Nov-16 11:01N 05°40' E 000°09'1 1.4
2017-Nov-16 10:31N 05°39' E 000°09'510.2
2017-Nov-16 10:01N 05°37' E 000°04'5 9.3
2017-Nov-16 09:31N 05°37' W 000°00'0 0.2
2017-Nov-16 09:01N 05°37' W 000°01'0 0.0
2017-Nov-16 08:31N 05°37' W 000°00'0 0.0
2017-Nov-16 08:00N 05°37' W 000°01'0 0.0
2017-Nov-16 07:31N 05°37' W 000°01'0 0.0
2017-Nov-16 07:01N 05°37' W 000°01'0 1.0
2017-Nov-16 06:31N 05°37' W 000°00'4 8.3
2017-Nov-16 06:01N 05°36' E 000°04'5 9.0
2017-Nov-16 05:30N 05°39' E 000°08'1 2.0
2017-Nov-16 05:01N 05°40' E 000°08'1 1.9
2017-Nov-16 04:31N 05°39' E 000°08'0 0.6
2017-Nov-16 04:01N 05°40' E 000°08'0 0.2
2017-Nov-16 03:31N 05°40' E 000°08'1 2.8
2017-Nov-16 03:01N 05°38' E 000°07'612.5
2017-Nov-16 02:30N 05°35' E 000°01'2 4.8
2017-Nov-16 02:01N 05°37' W 000°01'0 0.0
2017-Nov-16 01:31N 05°37' W 000°01'0 0.0
2017-Nov-16 01:01N 05°37' W 000°00'0 0.0
2017-Nov-16 00:31N 05°37' W 000°00'0 0.0
2017-Nov-16 00:00N 05°37' W 000°01'675121469.7
2017-Nov-15 23:41N 22°43' E 114°41'674936925.6
2017-Nov-15 23:31N 05°35' E 000°02'6751197580.4
2017-Nov-15 23:28N 22°43' E 114°43'674614480.7
2017-Nov-15 23:01N 05°38' E 000°06'6746476158.2
2017-Nov-15 23:00N 22°43' E 114°43'674313886.7
2017-Nov-15 22:31N 05°40' E 000°08'674358917.5
2017-Nov-15 22:24N 22°43' E 114°43'674317351.7
2017-Nov-15 22:00N 05°40' E 000°08'6743577976.6
2017-Nov-15 22:00N 22°43' E 114°43'674313879.3
2017-Nov-15 21:31N 05°39' E 000°08'6743106468.5
2017-Nov-15 21:27N 22°43' E 114°43'674315441.3
2017-Nov-15 21:01N 05°40' E 000°08'6743104628.2
2017-Nov-15 20:57N 22°43' E 114°43'674315383.9
2017-Nov-15 20:30N 05°39' E 000°08'6743108860.3
2017-Nov-15 20:27N 22°43' E 114°43'674515506.2
2017-Nov-15 20:01N 05°38' E 000°07'6745458164.1
2017-Nov-15 20:00N 22°43' E 114°43'675213833.9
2017-Nov-15 19:30N 05°35' E 000°01'6752592834.5
2017-Nov-15 19:30N 22°43' E 114°43'675213827.6
2017-Nov-15 19:00N 05°37' W 000°00'675259435.1
2017-Nov-15 18:54N 22°43' E 114°43'675217577.0
2017-Nov-15 18:31N 05°37' W 000°01'675259002.4
2017-Nov-15 18:24N 22°43' E 114°43'675217413.3
2017-Nov-15 18:00N 05°37' W 000°01'675260170.8
2017-Nov-15 17:54N 22°43' E 114°43'675217513.7
2017-Nov-15 17:31N 05°37' W 000°00'0 0.0
2017-Nov-15 17:01N 05°37' W 000°01'675218514.1
2017-Nov-15 16:39N 22°43' E 114°43'675249915.2
2017-Nov-15 16:31N 05°37' W 000°00'6752486174.3
2017-Nov-15 16:30N 22°43' E 114°43'674913884.4
2017-Nov-15 16:01N 05°36' E 000°03'6749467263.8
2017-Nov-15 16:00N 22°43' E 114°43'674513882.8
2017-Nov-15 15:31N 05°39' E 000°07'6745441472.3
2017-Nov-15 15:30N 22°43' E 114°43'674313848.3
2017-Nov-15 15:00N 05°40' E 000°08'6743551729.0
2017-Nov-15 15:00N 22°43' E 114°43'674413826.5
2017-Nov-15 14:30N 05°39' E 000°07'6744551801.5
2017-Nov-15 14:30N 22°43' E 114°43'674413896.4
2017-Nov-15 14:01N 05°40' E 000°08'6744449575.8
2017-Nov-15 14:00N 22°43' E 114°43'674413832.9
2017-Nov-15 13:30N 05°40' E 000°08'6744551743.8
2017-Nov-15 13:30N 22°43' E 114°43'674413897.7
2017-Nov-15 13:01N 05°39' E 000°07'674458504.2
2017-Nov-15 12:54N 22°43' E 114°43'675017545.9
2017-Nov-15 12:31N 05°35' E 000°02'6750450019.3
2017-Nov-15 12:30N 22°43' E 114°43'675313922.7
2017-Nov-15 12:01N 05°37' W 000°01'6753105233.8
2017-Nov-15 11:57N 22°43' E 114°43'675315395.2
2017-Nov-15 11:30N 05°37' W 000°01'675331611.2
2017-Nov-15 11:18N 22°43' E 114°43'675223809.0
2017-Nov-15 11:01N 05°37' W 000°00'6752441981.4
2017-Nov-15 11:00N 22°43' E 114°43'675213922.7
2017-Nov-15 10:31N 05°37' W 000°00'6752467480.7
2017-Nov-15 10:30N 22°43' E 114°43'675213827.6
2017-Nov-15 10:00N 05°37' W 000°00'6752552476.8
2017-Nov-15 10:00N 22°43' E 114°43'675313938.6
2017-Nov-15 09:31N 05°37' W 000°01'675321379.9
2017-Nov-15 09:12N 22°43' E 114°43'675336066.8
2017-Nov-15 09:00N 05°37' W 000°01'675341341.9
2017-Nov-15 08:51N 22°43' E 114°43'675220220.9
2017-Nov-15 08:31N 05°35' E 000°01'6752105676.2
2017-Nov-15 08:27N 22°43' E 114°43'674715459.9
2017-Nov-15 08:01N 05°37' E 000°06'6747104687.4
2017-Nov-15 07:57N 22°43' E 114°43'674215489.5
2017-Nov-15 07:31N 05°40' E 000°09'6742102847.8
2017-Nov-15 07:27N 22°43' E 114°43'674315421.7
2017-Nov-15 07:00N 05°40' E 000°08'6743495383.6
2017-Nov-15 07:00N 22°43' E 114°43'674213861.3
2017-Nov-15 06:30N 05°40' E 000°09'6742108353.7
2017-Nov-15 06:27N 22°43' E 114°43'674215410.8
2017-Nov-15 06:00N 05°40' E 000°09'6742539379.6
2017-Nov-15 06:00N 22°43' E 114°43'674313903.3
2017-Nov-15 05:31N 05°39' E 000°08'6743433485.0
2017-Nov-15 05:30N 22°43' E 114°43'674613926.1
2017-Nov-15 05:01N 05°37' E 000°06'6746433700.1
2017-Nov-15 05:00N 22°43' E 114°43'675213929.8
2017-Nov-15 04:31N 05°36' E 000°00'6752434063.6
2017-Nov-15 04:30N 22°43' E 114°43'675213954.6
2017-Nov-15 04:01N 05°37' W 000°00'675257604.2
2017-Nov-15 03:54N 22°43' E 114°43'675317615.2
2017-Nov-15 03:31N 05°37' W 000°01'6753434089.3
2017-Nov-15 03:30N 22°43' E 114°43'675213938.6
2017-Nov-15 03:01N 05°37' W 000°00'6752441981.5
2017-Nov-15 03:00N 22°43' E 114°43'675313930.7
2017-Nov-15 02:31N 05°37' W 000°01'6753105234.0
2017-Nov-15 02:27N 22°43' E 114°43'675315414.7
2017-Nov-15 02:00N 05°37' W 000°01'6753106153.1
2017-Nov-15 01:57N 22°43' E 114°43'675315572.7
2017-Nov-15 01:31N 05°37' W 000°01'6753102138.7
2017-Nov-15 01:27N 22°43' E 114°43'675015459.0
2017-Nov-15 01:00N 05°35' E 000°02'6750106120.3
2017-Nov-15 00:57N 22°43' E 114°43'674515536.5
2017-Nov-15 00:31N 05°38' E 000°06'6745100761.9
2017-Nov-15 00:26N 22°43' E 114°43'  
Track history (hours):
 
Tides and Currents Weather Stations Pressure Air Temp Water Temp Dewpoint Dewpoint Depression Visibility Wind Speed Wind Dir Waves Ship Positions

Jun Ma 2

Last reported at 2017-Nov-25 00:00 UTC. Time now 2017-Nov-25 00:17 UTC.
Position N 05°37' W 000°01'.

Length 87 m.

MMSI: 412052630.

Date/timePositionNaut miles runAvg speedWind from/ knotsBaromVisibWave heightAir tempDewpointWater temp
2017-Nov-25 00:00N 05°37' W 000°01'1 1.4
2017-Nov-24 23:30N 05°36' E 000°00'4 8.6
2017-Nov-24 23:00N 05°36' E 000°04'5 9.2
2017-Nov-24 22:31N 05°39' E 000°08'1 1.0
2017-Nov-24 22:00N 05°40' E 000°08'0 0.7
2017-Nov-24 21:30N 05°39' E 000°08'0 0.5
2017-Nov-24 21:00N 05°40' E 000°08'0 0.5
2017-Nov-24 20:30N 05°39' E 000°08'1 1.3
2017-Nov-24 20:00N 05°39' E 000°08'612.8
2017-Nov-24 19:30N 05°35' E 000°02'3 6.4
2017-Nov-24 19:00N 05°37' W 000°00'0 0.0
2017-Nov-24 18:30N 05°37' W 000°00'0 0.0
2017-Nov-24 18:00N 05°37' W 000°00'0 0.0
2017-Nov-24 17:30N 05°37' W 000°00'0 0.0
2017-Nov-24 17:00N 05°37' W 000°01'0 0.3
2017-Nov-24 16:31N 05°37' W 000°00'3 7.0
2017-Nov-24 16:00N 05°36' E 000°03'5 9.7
2017-Nov-24 15:30N 05°39' E 000°07'1 1.9
2017-Nov-24 15:00N 05°40' E 000°07'0 0.2
2017-Nov-24 14:30N 05°40' E 000°08'1 1.0
2017-Nov-24 14:00N 05°39' E 000°07'1 1.1
2017-Nov-24 13:30N 05°40' E 000°07'1 1.5
2017-Nov-24 13:00N 05°39' E 000°07'5 9.3
2017-Nov-24 12:30N 05°36' E 000°04'4 8.1
2017-Nov-24 12:00N 05°37' W 000°00'0 0.0
2017-Nov-24 11:30N 05°37' W 000°00'0 0.0
2017-Nov-24 11:00N 05°37' W 000°00'0 0.0
2017-Nov-24 10:30N 05°37' W 000°00'1 2.1
2017-Nov-24 10:00N 05°36' E 000°00'0 0.2
2017-Nov-24 09:30N 05°36' E 000°00'0 0.6
2017-Nov-24 09:00N 05°36' E 000°00'1 2.8
2017-Nov-24 08:31N 05°35' E 000°01'2 4.9
2017-Nov-24 08:00N 05°38' E 000°01'0 0.1
2017-Nov-24 07:30N 05°38' E 000°00'0 0.0
2017-Nov-24 06:59N 05°38' E 000°00'0 0.0
2017-Nov-24 06:29N 05°38' E 000°00'0 0.0
2017-Nov-24 05:59N 05°38' E 000°00'0 0.0
2017-Nov-24 05:29N 05°38' E 000°00'0 0.0
2017-Nov-24 04:59N 05°38' E 000°00'0 0.0
2017-Nov-24 04:29N 05°38' E 000°00'0 0.0
2017-Nov-24 03:59N 05°38' E 000°00'0 0.0
2017-Nov-24 03:29N 05°38' E 000°00'0 0.0
2017-Nov-24 02:59N 05°38' E 000°00'0 0.0
2017-Nov-24 02:29N 05°38' E 000°00'0 0.0
2017-Nov-24 01:59N 05°38' E 000°00'0 0.0
2017-Nov-24 01:29N 05°38' E 000°00'0 0.0
2017-Nov-24 00:59N 05°38' E 000°00'0 0.0
2017-Nov-24 00:29N 05°38' E 000°00'0 0.0
2017-Nov-23 23:59N 05°38' E 000°00'0 0.0
2017-Nov-23 23:29N 05°38' E 000°00'0 0.0
2017-Nov-23 22:59N 05°38' E 000°00'0 0.0
2017-Nov-23 22:26N 05°38' E 000°00'0 0.0
2017-Nov-23 21:59N 05°38' E 000°00'0 0.0
2017-Nov-23 21:29N 05°38' E 000°00'0 0.0
2017-Nov-23 20:59N 05°38' E 000°00'0 0.0
2017-Nov-23 20:26N 05°38' E 000°00'0 0.0
2017-Nov-23 19:59N 05°38' E 000°00'0 0.0
2017-Nov-23 19:29N 05°38' E 000°00'0 0.0
2017-Nov-23 18:59N 05°38' E 000°00'0 0.0
2017-Nov-23 18:29N 05°38' E 000°00'0 0.0
2017-Nov-23 17:59N 05°38' E 000°00'0 0.0
2017-Nov-23 17:29N 05°38' E 000°00'0 0.0
2017-Nov-23 16:59N 05°38' E 000°00'0 0.0
2017-Nov-23 16:29N 05°38' E 000°00'0 0.0
2017-Nov-23 15:59N 05°38' E 000°00'0 0.0
2017-Nov-23 15:29N 05°38' E 000°00'0 0.0
2017-Nov-23 14:59N 05°38' E 000°00'0 0.0
2017-Nov-23 14:23N 05°38' E 000°00'0 0.0
2017-Nov-23 13:59N 05°38' E 000°00'0 0.0
2017-Nov-23 13:29N 05°38' E 000°00'0 0.0
2017-Nov-23 12:59N 05°38' E 000°00'0 0.0
2017-Nov-23 12:29N 05°38' E 000°00'0 0.0
2017-Nov-23 11:59N 05°38' E 000°00'0 0.0
2017-Nov-23 11:29N 05°38' E 000°00'0 0.0
2017-Nov-23 10:59N 05°38' E 000°00'0 0.0
2017-Nov-23 10:29N 05°38' E 000°00'0 0.0
2017-Nov-23 09:59N 05°38' E 000°00'0 0.0
2017-Nov-23 09:29N 05°38' E 000°00'0 0.0
2017-Nov-23 08:59N 05°38' E 000°00'0 0.0
2017-Nov-23 08:29N 05°38' E 000°00'0 0.0
2017-Nov-23 07:59N 05°38' E 000°00'0 0.0
2017-Nov-23 07:29N 05°38' E 000°00'0 0.0
2017-Nov-23 06:59N 05°38' E 000°00'0 0.0
2017-Nov-23 06:29N 05°38' E 000°00'0 0.0
2017-Nov-23 05:59N 05°38' E 000°00'0 0.0
2017-Nov-23 05:29N 05°38' E 000°00'0 0.0
2017-Nov-23 04:59N 05°38' E 000°00'0 0.0
2017-Nov-23 04:29N 05°38' E 000°00'0 0.0
2017-Nov-23 03:59N 05°38' E 000°00'0 0.0
2017-Nov-23 03:29N 05°38' E 000°00'0 0.0
2017-Nov-23 02:59N 05°38' E 000°00'0 0.0
2017-Nov-23 02:29N 05°38' E 000°00'0 0.0
2017-Nov-23 01:59N 05°38' E 000°00'0 0.0
2017-Nov-23 01:29N 05°38' E 000°00'0 0.0
2017-Nov-23 00:59N 05°38' E 000°00'0 0.0
2017-Nov-23 00:29N 05°38' E 000°00'0 0.0
2017-Nov-22 23:59N 05°38' E 000°00'0 0.0
2017-Nov-22 23:29N 05°38' E 000°00'0 0.0
2017-Nov-22 22:59N 05°38' E 000°00'0 0.0
2017-Nov-22 22:29N 05°38' E 000°00'0 0.0
2017-Nov-22 21:59N 05°38' E 000°00'0 0.0
2017-Nov-22 21:29N 05°38' E 000°00'0 0.0
2017-Nov-22 20:59N 05°38' E 000°00'0 0.0
2017-Nov-22 20:29N 05°38' E 000°00'0 0.0
2017-Nov-22 19:59N 05°38' E 000°00'0 0.0
2017-Nov-22 19:29N 05°38' E 000°00'  
2017-Nov-20 00:31N 05°40' E 000°08'673963508.1
2017-Nov-20 00:24N 22°45' E 114°38'674017110.3
2017-Nov-20 00:01N 05°39' E 000°07'67401155351.5
2017-Nov-20 00:00N 22°45' E 114°38'674313561.0
2017-Nov-19 23:30N 05°36' E 000°05'67431733874.0
2017-Nov-19 23:30N 22°45' E 114°38'674813685.2
2017-Nov-19 23:01N 05°37' W 000°00'67481214557.6
2017-Nov-19 23:00N 22°45' E 114°38'674813647.5
2017-Nov-19 22:31N 05°37' W 000°01'67481056194.5
2017-Nov-19 22:30N 22°45' E 114°38'674813662.8
2017-Nov-19 22:01N 05°37' W 000°01'67481214624.7
2017-Nov-19 22:00N 22°45' E 114°38'674813647.5
2017-Nov-19 21:31N 05°37' W 000°01'67481104204.7
2017-Nov-19 21:30N 22°45' E 114°38'674813594.0
2017-Nov-19 21:00N 05°37' W 000°01'67481735177.8
2017-Nov-19 21:00N 22°45' E 114°38'674813678.0
2017-Nov-19 20:31N 05°37' W 000°00'67481156765.0
2017-Nov-19 20:30N 22°45' E 114°38'674513648.8
2017-Nov-19 20:01N 05°36' E 000°03'6745971251.1
2017-Nov-19 20:00N 22°45' E 114°38'674013646.6
2017-Nov-19 19:30N 05°39' E 000°07'67401213184.2
2017-Nov-19 19:30N 22°45' E 114°38'673913645.0
2017-Nov-19 19:01N 05°39' E 000°08'67391102765.1
2017-Nov-19 19:00N 22°45' E 114°38'673813651.2
2017-Nov-19 18:31N 05°40' E 000°08'67381102642.4
2017-Nov-19 18:30N 22°45' E 114°38'673913651.7
2017-Nov-19 18:01N 05°40' E 000°08'67391054741.1
2017-Nov-19 18:00N 22°45' E 114°38'673913614.7
2017-Nov-19 17:30N 05°39' E 000°07'67391102792.9
2017-Nov-19 17:30N 22°45' E 114°38'674113688.0
2017-Nov-19 17:01N 05°38' E 000°06'6741808963.7
2017-Nov-19 17:00N 22°45' E 114°38'674713715.8
2017-Nov-19 16:31N 05°36' E 000°00'6747934254.6
2017-Nov-19 16:30N 22°45' E 114°38'674813685.9
2017-Nov-19 16:01N 05°37' W 000°01'6748934326.4
2017-Nov-19 16:00N 22°45' E 114°38'674813693.6
2017-Nov-19 15:31N 05°37' W 000°01'6748934326.5
2017-Nov-19 15:30N 22°45' E 114°38'674813693.6
2017-Nov-19 15:01N 05°37' W 000°01'674862933.9
2017-Nov-19 14:54N 22°45' E 114°38'674817192.1
2017-Nov-19 14:31N 05°37' W 000°01'6748934326.7
2017-Nov-19 14:30N 22°45' E 114°38'674813616.9
2017-Nov-19 14:00N 05°37' W 000°01'67481214625.2
2017-Nov-19 14:00N 22°45' E 114°38'674713731.5
2017-Nov-19 13:31N 05°37' W 000°00'67471012124.8
2017-Nov-19 13:30N 22°45' E 114°38'674313653.4
2017-Nov-19 13:01N 05°37' E 000°04'6743971026.7
2017-Nov-19 13:00N 22°45' E 114°38'674013676.6
2017-Nov-19 12:31N 05°39' E 000°07'6740970494.7
2017-Nov-19 12:30N 22°45' E 114°38'673913668.2
2017-Nov-19 12:01N 05°39' E 000°07'6739933118.1
2017-Nov-19 12:00N 22°45' E 114°38'673913668.0
2017-Nov-19 11:31N 05°39' E 000°08'6739970424.5
2017-Nov-19 11:30N 22°45' E 114°38'673913668.2
2017-Nov-19 11:01N 05°39' E 000°08'6739933114.4
2017-Nov-19 11:00N 22°45' E 114°38'673913675.5
2017-Nov-19 10:31N 05°39' E 000°08'6739118923.5
2017-Nov-19 10:27N 22°45' E 114°38'673915211.3
2017-Nov-19 10:01N 05°39' E 000°07'6739933151.8
2017-Nov-19 10:00N 22°45' E 114°38'674413602.1
2017-Nov-19 09:30N 05°36' E 000°03'67441348872.6
2017-Nov-19 09:30N 22°45' E 114°38'674813716.8
2017-Nov-19 09:01N 05°37' W 000°00'6748837669.9
2017-Nov-19 09:00N 22°45' E 114°38'674813709.1
2017-Nov-19 08:31N 05°37' W 000°01'6748971699.5
2017-Nov-19 08:30N 22°45' E 114°38'674813693.6
2017-Nov-19 08:01N 05°37' W 000°01'674862448.6
2017-Nov-19 07:54N 22°45' E 114°38'674817107.4
2017-Nov-19 07:30N 05°37' W 000°00'67481056194.2
2017-Nov-19 07:30N 22°45' E 114°38'674813747.9
2017-Nov-19 07:01N 05°37' W 000°00'6748736135.2
2017-Nov-19 07:00N 22°45' E 114°38'674813740.1
2017-Nov-19 06:31N 05°37' W 000°01'6748114587.2
2017-Nov-19 06:27N 22°45' E 114°38'674815211.2
2017-Nov-19 06:00N 05°37' W 000°00'67481349572.7
2017-Nov-19 06:00N 22°45' E 114°38'674513687.1
2017-Nov-19 05:31N 05°36' E 000°03'6745933883.9
2017-Nov-19 05:30N 22°45' E 114°38'673913684.1
2017-Nov-19 05:01N 05°39' E 000°07'6739808731.2
2017-Nov-19 05:00N 22°45' E 114°38'673913699.5
2017-Nov-19 04:31N 05°39' E 000°07'6739836616.5
2017-Nov-19 04:30N 22°45' E 114°38'673913705.9
2017-Nov-19 04:01N 05°40' E 000°08'6739116073.7
2017-Nov-19 03:57N 22°45' E 114°38'674015249.9
2017-Nov-19 03:31N 05°39' E 000°07'6740836640.6
2017-Nov-19 03:30N 22°45' E 114°38'673913698.4
2017-Nov-19 03:01N 05°40' E 000°08'6739362076.6
2017-Nov-19 02:59N 22°45' E 114°38'673913991.4
2017-Nov-19 02:31N 05°39' E 000°07'6739385092.6
2017-Nov-19 02:29N 22°45' E 114°38'674213821.2
2017-Nov-19 02:00N 05°37' E 000°06'6742577856.0
2017-Nov-19 01:59N 22°45' E 114°38'674713975.8
2017-Nov-19 01:31N 05°36' E 000°00'6747346999.3
2017-Nov-19 01:29N 22°45' E 114°38'674814041.3
2017-Nov-19 01:01N 05°37' W 000°00'674897949.5
2017-Nov-19 00:56N 22°45' E 114°38'674815551.5
2017-Nov-19 00:30N 05°37' W 000°00'6748476303.2
2017-Nov-19 00:30N 22°45' E 114°38'674813968.6
2017-Nov-19 00:01N 05°37' W 000°00'6748379554.1
2017-Nov-18 23:59N 22°45' E 114°38'674813984.7
2017-Nov-18 23:31N 05°37' W 000°01'6748379554.3
2017-Nov-18 23:29N 22°45' E 114°38'674814000.9
2017-Nov-18 23:01N 05°37' W 000°01'6748379554.7
2017-Nov-18 22:59N 22°45' E 114°38'674613910.2
2017-Nov-18 22:30N 05°35' E 000°01'6746449763.5
2017-Nov-18 22:29N 22°45' E 114°38'674113891.5
2017-Nov-18 22:00N 05°38' E 000°06'6741103270.0
2017-Nov-18 21:56N 22°45' E 114°38'673815599.1
2017-Nov-18 21:31N 05°40' E 000°08'6738379008.7
2017-Nov-18 21:29N 22°45' E 114°38'673813989.7
2017-Nov-18 21:01N 05°39' E 000°08'6738336918.4
2017-Nov-18 20:59N 22°45' E 114°38'673913950.5
2017-Nov-18 20:30N 05°39' E 000°08'6739104568.9
2017-Nov-18 20:26N 22°45' E 114°38'673815559.6
2017-Nov-18 20:01N 05°40' E 000°08'6738367537.5
2017-Nov-18 19:59N 22°45' E 114°38'673913999.0
2017-Nov-18 19:31N 05°39' E 000°07'6739356769.8
2017-Nov-18 19:29N 22°45' E 114°38'674314007.2
2017-Nov-18 19:01N 05°37' E 000°04'6743101144.0
2017-Nov-18 18:57N 22°45' E 114°38'674815581.3
2017-Nov-18 18:31N 05°37' W 000°00'6748357223.7
2017-Nov-18 18:29N 22°45' E 114°38'674814025.1
2017-Nov-18 18:01N 05°37' W 000°00'6748352050.0
2017-Nov-18 17:59N 22°45' E 114°38'674814033.2
2017-Nov-18 17:31N 05°37' W 000°00'674899964.8
2017-Nov-18 17:26N 22°45' E 114°38'674815601.4
2017-Nov-18 17:01N 05°37' W 000°00'6748347020.8
2017-Nov-18 16:59N 22°45' E 114°38'674814033.2
2017-Nov-18 16:31N 05°37' W 000°00'674898346.0
2017-Nov-18 16:26N 22°45' E 114°38'674715650.7
2017-Nov-18 16:01N 05°36' E 000°00'6747368028.9
2017-Nov-18 15:59N 22°45' E 114°38'674313990.8
2017-Nov-18 15:31N 05°37' E 000°04'6743362298.8
2017-Nov-18 15:29N 22°45' E 114°38'673914007.7
2017-Nov-18 15:01N 05°39' E 000°07'6739356785.4
2017-Nov-18 14:59N 22°45' E 114°38'673913998.3
2017-Nov-18 14:31N 05°40' E 000°08'6739336930.2
2017-Nov-18 14:29N 22°45' E 114°38'673914048.2
2017-Nov-18 14:01N 05°39' E 000°07'6739332346.9
2017-Nov-18 13:59N 22°45' E 114°38'673914014.3
2017-Nov-18 13:30N 05°40' E 000°08'6739391270.5
2017-Nov-18 13:29N 22°45' E 114°38'673913983.6
2017-Nov-18 13:01N 05°39' E 000°07'6739346592.6
2017-Nov-18 12:59N 22°45' E 114°38'674314031.8
2017-Nov-18 12:31N 05°36' E 000°04'674397883.4
2017-Nov-18 12:26N 22°45' E 114°38'674815661.6
2017-Nov-18 12:01N 05°37' W 000°00'6748379550.0
2017-Nov-18 11:59N 22°45' E 114°38'674813984.7
2017-Nov-18 11:31N 05°37' W 000°01'6748362559.4
2017-Nov-18 11:29N 22°45' E 114°38'674814025.1
2017-Nov-18 11:01N 05°37' W 000°01'674897165.9
2017-Nov-18 10:56N 22°45' E 114°38'674815661.8
2017-Nov-18 10:31N 05°37' W 000°00'6748362559.0
2017-Nov-18 10:29N 22°45' E 114°38'674814017.0
2017-Nov-18 10:01N 05°37' W 000°00'6748332759.6
2017-Nov-18 09:59N 22°45' E 114°38'674714073.2
2017-Nov-18 09:31N 05°37' W 000°00'4 7.7
2017-Nov-18 09:01N 05°36' E 000°04'510.2
2017-Nov-18 08:30N 05°39' E 000°08'1 1.0
2017-Nov-18 08:01N 05°40' E 000°08'1 1.0
2017-Nov-18 07:31N 05°39' E 000°08'1 1.3
2017-Nov-18 07:01N 05°40' E 000°08'1 2.0
2017-Nov-18 06:30N 05°39' E 000°07'3 5.6
2017-Nov-18 06:00N 05°37' E 000°05'510.3
2017-Nov-18 05:30N 05°36' E 000°00'1 1.3
2017-Nov-18 05:01N 05°37' W 000°00'0 0.0
2017-Nov-18 04:31N 05°37' W 000°00'0 0.0
2017-Nov-18 04:00N 05°37' W 000°00'0 0.0
2017-Nov-18 03:31N 05°37' W 000°01'0 0.0
2017-Nov-18 03:00N 05°37' W 000°01'1 2.3
2017-Nov-18 02:31N 05°36' E 000°00'5 9.3
2017-Nov-18 02:01N 05°37' E 000°05'4 7.2
2017-Nov-18 01:31N 05°40' E 000°07'0 0.5
2017-Nov-18 01:01N 05°39' E 000°07'0 0.4
2017-Nov-18 00:31N 05°39' E 000°07'1 1.5
2017-Nov-18 00:01N 05°40' E 000°08'1 1.7
2017-Nov-17 23:31N 05°39' E 000°08'6742449455.3
2017-Nov-17 23:30N 22°41' E 114°41'674513899.4
2017-Nov-17 23:01N 05°37' E 000°05'510.5
2017-Nov-17 22:31N 05°37' W 000°00'675415477.2
2017-Nov-17 22:04N 22°31' E 114°44'6754106649.8
2017-Nov-17 22:01N 05°37' W 000°01'675616181.2
2017-Nov-17 21:35N 22°28' E 114°45'675681886.7
2017-Nov-17 21:31N 05°37' W 000°01'675668895.4
2017-Nov-17 21:25N 22°26' E 114°44'675616807.2
2017-Nov-17 21:01N 05°37' W 000°01'67528102946.2
2017-Nov-17 21:00N 22°23' E 114°41'675213519.9
2017-Nov-17 20:31N 05°37' W 000°01'6749783722.1
2017-Nov-17 20:30N 22°20' E 114°37'674813670.6
2017-Nov-17 20:00N 05°35' E 000°01'67446070041.5
2017-Nov-17 20:00N 22°17' E 114°33'674013577.1
2017-Nov-17 19:31N 05°37' E 000°05'3 6.9
2017-Nov-17 19:00N 05°39' E 000°08'0 0.3
2017-Nov-17 18:31N 05°40' E 000°08'1 1.2
2017-Nov-17 18:01N 05°40' E 000°08'1 2.0
2017-Nov-17 17:31N 05°39' E 000°08'0 0.4
2017-Nov-17 17:01N 05°39' E 000°08'6710168918.1
2017-Nov-17 16:58N 22°02' E 114°04'670914567.5
2017-Nov-17 16:31N 05°40' E 000°08'6705389346.2
2017-Nov-17 16:29N 22°01' E 113°60'670613897.5
2017-Nov-17 16:01N 05°40' E 000°08'67061856956.3
2017-Nov-17 16:00N 22°01' E 113°60'670613502.4
2017-Nov-17 15:31N 05°39' E 000°07'67062194759.9
2017-Nov-17 15:30N 22°01' E 113°60'670713497.0
2017-Nov-17 15:01N 05°38' E 000°07'612.3
2017-Nov-17 14:30N 05°35' E 000°01'671313945.0
2017-Nov-17 14:01N 22°00' E 113°59'6714416739.5
2017-Nov-17 14:01N 05°37' W 000°00'0 0.0
2017-Nov-17 13:31N 05°37' W 000°00'671436568.7
2017-Nov-17 13:19N 22°00' E 113°59'671421240.7
2017-Nov-17 13:01N 05°37' W 000°00'671415078.9
2017-Nov-17 12:34N 22°00' E 113°59'6714116209.3
2017-Nov-17 12:30N 05°37' W 000°01'671429088.0
2017-Nov-17 12:16N 22°00' E 113°59'671525231.9
2017-Nov-17 12:01N 05°37' W 000°01'671418840.2
2017-Nov-17 11:39N 22°01' E 113°59'671445864.2
2017-Nov-17 11:30N 05°37' W 000°00'671343783.2
2017-Nov-17 11:21N 22°01' E 113°59'671319521.8
2017-Nov-17 11:01N 05°36' E 000°00'6714120242.7
2017-Nov-17 10:57N 22°01' E 113°59'671015014.1
2017-Nov-17 10:30N 05°36' E 000°04'671121324.6
2017-Nov-17 10:11N 22°00' E 113°60'670636141.9
2017-Nov-17 10:00N 05°39' E 000°08'1 2.4
2017-Nov-17 09:31N 05°40' E 000°09'0 0.9
2017-Nov-17 09:01N 05°39' E 000°08'0 0.4
2017-Nov-17 08:31N 05°39' E 000°08'0 1.0
2017-Nov-17 08:01N 05°40' E 000°08'1 1.3
2017-Nov-17 07:30N 05°39' E 000°08'1 2.7
2017-Nov-17 07:01N 05°38' E 000°07'612.1
2017-Nov-17 06:30N 05°35' E 000°02'3 5.6
2017-Nov-17 06:01N 05°37' W 000°01'0 0.0
2017-Nov-17 05:31N 05°37' W 000°00'0 0.0
2017-Nov-17 05:01N 05°37' W 000°00'0 0.0
2017-Nov-17 04:31N 05°37' W 000°00'671529088.8
2017-Nov-17 04:17N 22°00' E 113°59'671524666.1
2017-Nov-17 04:00N 05°37' W 000°01'671599478.3
2017-Nov-17 03:56N 22°00' E 113°60'671415624.6
2017-Nov-17 03:31N 05°36' E 000°00'6715119666.8
2017-Nov-17 03:27N 22°00' E 113°60'671015116.9
2017-Nov-17 03:01N 05°37' E 000°05'4 7.9
2017-Nov-17 02:31N 05°40' E 000°07'0 0.3
2017-Nov-17 02:00N 05°40' E 000°08'670692853.1
2017-Nov-17 01:56N 22°01' E 113°60'670715739.6
2017-Nov-17 01:30N 05°39' E 000°07'6706409192.3
2017-Nov-17 01:29N 22°01' E 113°59'670613897.5
2017-Nov-17 01:01N 05°40' E 000°07'6706464264.9
2017-Nov-17 01:00N 22°01' E 113°60'670613740.5
2017-Nov-17 00:30N 05°40' E 000°07'67068047356.7
2017-Nov-17 00:30N 22°01' E 113°60'670713504.5
2017-Nov-17 00:01N 05°38' E 000°07'67071857389.1
2017-Nov-17 00:00N 22°01' E 113°60'671413532.3
2017-Nov-16 23:31N 05°35' E 000°01'6714732386.5
2017-Nov-16 23:30N 22°01' E 113°60'671513672.8
2017-Nov-16 23:01N 05°37' W 000°00'6715755413.3
2017-Nov-16 23:00N 22°01' E 113°60'671513664.9
2017-Nov-16 22:31N 05°37' W 000°01'671512086619.7
2017-Nov-16 22:30N 22°01' E 113°60'671513452.0
2017-Nov-16 22:01N 05°37' W 000°00'0 0.0
2017-Nov-16 21:30N 05°37' W 000°01'0 0.0
2017-Nov-16 21:01N 05°37' W 000°00'3 5.2
2017-Nov-16 20:31N 05°35' E 000°02'672734302.3
2017-Nov-16 20:19N 22°06' E 114°14'672322101.4
2017-Nov-16 20:01N 05°38' E 000°06'672772943.4
2017-Nov-16 19:55N 22°06' E 114°19'672416500.9
2017-Nov-16 19:31N 05°40' E 000°08'6728781289.2
2017-Nov-16 19:30N 22°09' E 114°23'672713690.1
2017-Nov-16 19:01N 05°39' E 000°08'67312019292.8
2017-Nov-16 19:00N 22°13' E 114°28'673013550.6
2017-Nov-16 18:31N 05°40' E 000°09'67348080874.2
2017-Nov-16 18:30N 22°16' E 114°32'673513500.1
2017-Nov-16 18:01N 05°40' E 000°08'67398086831.1
2017-Nov-16 18:00N 22°20' E 114°36'674013494.3
2017-Nov-16 17:31N 05°39' E 000°08'67438092019.8
2017-Nov-16 17:30N 22°23' E 114°41'674913513.5
2017-Nov-16 17:01N 05°36' E 000°03'675312155519.8
2017-Nov-16 17:00N 22°27' E 114°45'675613534.6
2017-Nov-16 16:31N 05°37' W 000°00'67548104751.7
2017-Nov-16 16:30N 22°32' E 114°43'675413523.0
2017-Nov-16 16:01N 05°37' W 000°01'6751185536.3
2017-Nov-16 15:58N 22°38' E 114°41'510.0
2017-Nov-16 15:31N 22°42' E 114°41'675124302498.6
2017-Nov-16 15:31N 05°37' W 000°00'0 0.0
2017-Nov-16 15:01N 05°37' W 000°01'67518100981.2
2017-Nov-16 15:00N 22°43' E 114°41'675113516.7
2017-Nov-16 14:31N 05°37' W 000°01'0 0.1
2017-Nov-16 14:01N 05°37' W 000°00'4 7.2
2017-Nov-16 13:31N 05°35' E 000°03'510.2
2017-Nov-16 13:00N 05°39' E 000°07'1 2.9
2017-Nov-16 12:31N 05°40' E 000°08'1 1.4
2017-Nov-16 12:01N 05°39' E 000°08'1 1.7
2017-Nov-16 11:30N 05°40' E 000°09'0 0.7
2017-Nov-16 11:01N 05°40' E 000°09'1 1.4
2017-Nov-16 10:31N 05°39' E 000°09'510.2
2017-Nov-16 10:01N 05°37' E 000°04'5 9.3
2017-Nov-16 09:31N 05°37' W 000°00'0 0.2
2017-Nov-16 09:01N 05°37' W 000°01'0 0.0
2017-Nov-16 08:31N 05°37' W 000°00'0 0.0
2017-Nov-16 08:00N 05°37' W 000°01'0 0.0
2017-Nov-16 07:31N 05°37' W 000°01'0 0.0
2017-Nov-16 07:01N 05°37' W 000°01'0 1.0
2017-Nov-16 06:31N 05°37' W 000°00'4 8.3
2017-Nov-16 06:01N 05°36' E 000°04'5 9.0
2017-Nov-16 05:30N 05°39' E 000°08'1 2.0
2017-Nov-16 05:01N 05°40' E 000°08'1 1.9
2017-Nov-16 04:31N 05°39' E 000°08'0 0.6
2017-Nov-16 04:01N 05°40' E 000°08'0 0.2
2017-Nov-16 03:31N 05°40' E 000°08'1 2.8
2017-Nov-16 03:01N 05°38' E 000°07'612.5
2017-Nov-16 02:30N 05°35' E 000°01'2 4.8
2017-Nov-16 02:01N 05°37' W 000°01'0 0.0
2017-Nov-16 01:31N 05°37' W 000°01'0 0.0
2017-Nov-16 01:01N 05°37' W 000°00'0 0.0
2017-Nov-16 00:31N 05°37' W 000°00'0 0.0
2017-Nov-16 00:00N 05°37' W 000°01'675121469.7
2017-Nov-15 23:41N 22°43' E 114°41'674936925.6
2017-Nov-15 23:31N 05°35' E 000°02'6751197580.4
2017-Nov-15 23:28N 22°43' E 114°43'674614480.7
2017-Nov-15 23:01N 05°38' E 000°06'6746476158.2
2017-Nov-15 23:00N 22°43' E 114°43'674313886.7
2017-Nov-15 22:31N 05°40' E 000°08'674358917.5
2017-Nov-15 22:24N 22°43' E 114°43'674317351.7
2017-Nov-15 22:00N 05°40' E 000°08'6743577976.6
2017-Nov-15 22:00N 22°43' E 114°43'674313879.3
2017-Nov-15 21:31N 05°39' E 000°08'6743106468.5
2017-Nov-15 21:27N 22°43' E 114°43'674315441.3
2017-Nov-15 21:01N 05°40' E 000°08'6743104628.2
2017-Nov-15 20:57N 22°43' E 114°43'674315383.9
2017-Nov-15 20:30N 05°39' E 000°08'6743108860.3
2017-Nov-15 20:27N 22°43' E 114°43'674515506.2
2017-Nov-15 20:01N 05°38' E 000°07'6745458164.1
2017-Nov-15 20:00N 22°43' E 114°43'675213833.9
2017-Nov-15 19:30N 05°35' E 000°01'6752592834.5
2017-Nov-15 19:30N 22°43' E 114°43'675213827.6
2017-Nov-15 19:00N 05°37' W 000°00'675259435.1
2017-Nov-15 18:54N 22°43' E 114°43'675217577.0
2017-Nov-15 18:31N 05°37' W 000°01'675259002.4
2017-Nov-15 18:24N 22°43' E 114°43'675217413.3
2017-Nov-15 18:00N 05°37' W 000°01'675260170.8
2017-Nov-15 17:54N 22°43' E 114°43'675217513.7
2017-Nov-15 17:31N 05°37' W 000°00'0 0.0
2017-Nov-15 17:01N 05°37' W 000°01'675218514.1
2017-Nov-15 16:39N 22°43' E 114°43'675249915.2
2017-Nov-15 16:31N 05°37' W 000°00'6752486174.3
2017-Nov-15 16:30N 22°43' E 114°43'674913884.4
2017-Nov-15 16:01N 05°36' E 000°03'6749467263.8
2017-Nov-15 16:00N 22°43' E 114°43'674513882.8
2017-Nov-15 15:31N 05°39' E 000°07'6745441472.3
2017-Nov-15 15:30N 22°43' E 114°43'674313848.3
2017-Nov-15 15:00N 05°40' E 000°08'6743551729.0
2017-Nov-15 15:00N 22°43' E 114°43'674413826.5
2017-Nov-15 14:30N 05°39' E 000°07'6744551801.5
2017-Nov-15 14:30N 22°43' E 114°43'674413896.4
2017-Nov-15 14:01N 05°40' E 000°08'6744449575.8
2017-Nov-15 14:00N 22°43' E 114°43'674413832.9
2017-Nov-15 13:30N 05°40' E 000°08'6744551743.8
2017-Nov-15 13:30N 22°43' E 114°43'674413897.7
2017-Nov-15 13:01N 05°39' E 000°07'674458504.2
2017-Nov-15 12:54N 22°43' E 114°43'675017545.9
2017-Nov-15 12:31N 05°35' E 000°02'6750450019.3
2017-Nov-15 12:30N 22°43' E 114°43'675313922.7
2017-Nov-15 12:01N 05°37' W 000°01'6753105233.8
2017-Nov-15 11:57N 22°43' E 114°43'675315395.2
2017-Nov-15 11:30N 05°37' W 000°01'675331611.2
2017-Nov-15 11:18N 22°43' E 114°43'675223809.0
2017-Nov-15 11:01N 05°37' W 000°00'6752441981.4
2017-Nov-15 11:00N 22°43' E 114°43'675213922.7
2017-Nov-15 10:31N 05°37' W 000°00'6752467480.7
2017-Nov-15 10:30N 22°43' E 114°43'675213827.6
2017-Nov-15 10:00N 05°37' W 000°00'6752552476.8
2017-Nov-15 10:00N 22°43' E 114°43'675313938.6
2017-Nov-15 09:31N 05°37' W 000°01'675321379.9
2017-Nov-15 09:12N 22°43' E 114°43'675336066.8
2017-Nov-15 09:00N 05°37' W 000°01'675341341.9
2017-Nov-15 08:51N 22°43' E 114°43'675220220.9
2017-Nov-15 08:31N 05°35' E 000°01'6752105676.2
2017-Nov-15 08:27N 22°43' E 114°43'674715459.9
2017-Nov-15 08:01N 05°37' E 000°06'6747104687.4
2017-Nov-15 07:57N 22°43' E 114°43'674215489.5
2017-Nov-15 07:31N 05°40' E 000°09'6742102847.8
2017-Nov-15 07:27N 22°43' E 114°43'674315421.7
2017-Nov-15 07:00N 05°40' E 000°08'6743495383.6
2017-Nov-15 07:00N 22°43' E 114°43'674213861.3
2017-Nov-15 06:30N 05°40' E 000°09'6742108353.7
2017-Nov-15 06:27N 22°43' E 114°43'674215410.8
2017-Nov-15 06:00N 05°40' E 000°09'6742539379.6
2017-Nov-15 06:00N 22°43' E 114°43'674313903.3
2017-Nov-15 05:31N 05°39' E 000°08'6743433485.0
2017-Nov-15 05:30N 22°43' E 114°43'674613926.1
2017-Nov-15 05:01N 05°37' E 000°06'6746433700.1
2017-Nov-15 05:00N 22°43' E 114°43'675213929.8
2017-Nov-15 04:31N 05°36' E 000°00'6752434063.6
2017-Nov-15 04:30N 22°43' E 114°43'675213954.6
2017-Nov-15 04:01N 05°37' W 000°00'675257604.2
2017-Nov-15 03:54N 22°43' E 114°43'675317615.2
2017-Nov-15 03:31N 05°37' W 000°01'6753434089.3
2017-Nov-15 03:30N 22°43' E 114°43'675213938.6
2017-Nov-15 03:01N 05°37' W 000°00'6752441981.5
2017-Nov-15 03:00N 22°43' E 114°43'675313930.7
2017-Nov-15 02:31N 05°37' W 000°01'6753105234.0
2017-Nov-15 02:27N 22°43' E 114°43'675315414.7
2017-Nov-15 02:00N 05°37' W 000°01'6753106153.1
2017-Nov-15 01:57N 22°43' E 114°43'675315572.7
2017-Nov-15 01:31N 05°37' W 000°01'6753102138.7
2017-Nov-15 01:27N 22°43' E 114°43'675015459.0
2017-Nov-15 01:00N 05°35' E 000°02'6750106120.3
2017-Nov-15 00:57N 22°43' E 114°43'674515536.5
2017-Nov-15 00:31N 05°38' E 000°06'6745100761.9
2017-Nov-15 00:26N 22°43' E 114°43'  

Dump ship's entire track history